Time;durP1;ratioP1;P1;durP2;ratioP2;P2;SDS_P1;SDS_P2;PMS_P1;PMS_P2;Temp;Humidity;BMP_temperature;BMP_pressure;BME280_temperature;BME280_humidity;BME280_pressure;Samples;Min_cycle;Max_cycle;Signal;HPM_P1;HPM_P2
2023/03/23 00:04:38;;;;;;;217.25;196.85;;;;;;;22.30;48.53;100204.94;20538138;28;20054;-74
2023/03/23 00:14:42;;;;;;;234.80;212.70;;;;;;;22.27;48.80;100197.31;20533212;28;20729;-75
2023/03/23 00:24:44;;;;;;;207.02;187.63;;;;;;;22.27;48.57;100198.13;20538181;28;20078;-75
2023/03/23 00:34:45;;;;;;;218.02;197.75;;;;;;;22.24;48.58;100185.22;20525922;28;20497;-74
2023/03/23 00:44:48;;;;;;;226.77;205.67;;;;;;;22.21;48.61;100183.66;20533698;28;20157;-76
2023/03/23 00:54:49;;;;;;;244.30;221.32;;;;;;;22.19;48.55;100176.84;20530766;28;20058;-76
2023/03/23 01:04:52;;;;;;;222.07;201.30;;;;;;;22.18;48.58;100169.88;20526445;28;20061;-74
2023/03/23 01:14:52;;;;;;;238.65;216.23;;;;;;;22.16;48.24;100166.56;20544073;28;20035;-75
2023/03/23 01:24:52;;;;;;;248.98;225.30;;;;;;;22.11;48.31;100169.59;20531687;28;20161;-74
2023/03/23 01:34:54;;;;;;;253.55;229.32;;;;;;;22.09;48.05;100168.06;20520273;28;20042;-74
2023/03/23 01:44:55;;;;;;;278.67;252.00;;;;;;;22.02;48.15;100155.38;20519176;28;20050;-74
2023/03/23 01:54:57;;;;;;;306.83;277.23;;;;;;;21.99;47.98;100146.91;20523165;28;20043;-74
2023/03/23 02:05:04;;;;;;;357.15;322.90;;;;;;;21.97;48.25;100151.47;20499334;28;20052;-75
2023/03/23 02:15:05;;;;;;;197.52;179.48;;;;;;;21.96;47.84;100155.91;20518255;28;20529;-74
2023/03/23 02:25:29;;;;;;;140.25;128.48;;;;;;;21.91;47.94;100155.47;20509635;28;20054;-75
2023/03/23 02:35:46;;;;;;;121.78;111.95;;;;;;;21.91;47.88;100161.56;20522459;28;20108;-74
2023/03/23 02:45:50;;;;;;;113.82;104.78;;;;;;;21.95;47.74;100169.19;20531400;28;20157;-75
2023/03/23 02:55:53;;;;;;;116.88;107.65;;;;;;;21.94;47.74;100159.66;20529481;28;20045;-75
2023/03/23 03:06:10;;;;;;;112.47;103.50;;;;;;;21.93;47.58;100176.44;20544804;28;20526;-75
2023/03/23 03:16:22;;;;;;;97.65;90.07;;;;;;;21.93;47.51;100171.97;20529882;28;20040;-75
2023/03/23 03:26:26;;;;;;;112.83;103.93;;;;;;;21.93;48.07;100168.53;20538771;28;20054;-74
2023/03/23 03:36:34;;;;;;;117.40;108.03;;;;;;;21.91;47.92;100184.47;20523880;28;20122;-75
2023/03/23 03:46:36;;;;;;;129.15;118.55;;;;;;;21.89;47.77;100175.84;20534892;28;20101;-74
2023/03/23 03:56:40;;;;;;;118.30;108.93;;;;;;;21.89;47.31;100192.47;20531080;28;20087;-75
2023/03/23 04:06:40;;;;;;;114.50;105.40;;;;;;;21.88;47.53;100197.88;20535533;28;20043;-75
2023/03/23 04:16:41;;;;;;;107.90;99.50;;;;;;;21.82;47.53;100193.13;20534578;28;20050;-75
2023/03/23 04:26:48;;;;;;;99.03;91.35;;;;;;;21.86;47.21;100194.53;20530678;28;20078;-75
2023/03/23 04:36:49;;;;;;;92.50;85.38;;;;;;;21.82;47.29;100195.78;20530356;28;20133;-75
2023/03/23 04:46:49;;;;;;;134.43;123.38;;;;;;;21.78;47.07;100197.81;20524522;28;20128;-75
2023/03/23 04:56:50;;;;;;;123.35;113.30;;;;;;;21.83;47.62;100208.00;20530648;28;20051;-76
2023/03/23 05:06:53;;;;;;;116.75;107.35;;;;;;;21.83;47.23;100203.53;20525024;28;20050;-77
2023/03/23 05:16:56;;;;;;;96.57;88.97;;;;;;;21.84;47.39;100210.50;20513430;28;20065;-75
2023/03/23 05:26:57;;;;;;;119.03;109.47;;;;;;;21.89;47.94;100213.56;20512877;28;20475;-74
2023/03/23 05:37:00;;;;;;;107.88;98.25;;;;;;;21.97;50.26;100205.03;20514958;28;20034;-76
2023/03/23 05:47:00;;;;;;;142.30;129.38;;;;;;;21.91;45.05;100195.00;20515234;28;20115;-74
2023/03/23 05:57:01;;;;;;;135.00;122.88;;;;;;;21.79;41.78;100188.97;20518917;28;20470;-80
2023/03/23 06:07:04;;;;;;;232.67;210.50;;;;;;;19.84;35.61;100210.22;20511993;28;20050;-82
2023/03/23 06:17:06;;;;;;;248.05;223.98;;;;;;;21.01;37.42;100198.78;20507904;28;20512;-74
2023/03/23 06:27:07;;;;;;;208.13;188.55;;;;;;;21.34;40.20;100197.84;20527530;28;20054;-78
2023/03/23 06:37:09;;;;;;;197.43;179.02;;;;;;;21.51;42.11;100199.09;20519600;28;20516;-76
2023/03/23 06:47:09;;;;;;;216.43;195.98;;;;;;;21.65;42.85;100202.44;20515944;28;20047;-76
2023/03/23 06:57:10;;;;;;;205.32;185.25;;;;;;;21.71;43.15;100200.13;20516102;28;20051;-76
2023/03/23 07:07:14;;;;;;;188.27;170.55;;;;;;;21.79;43.78;100209.19;20514851;28;20522;-76
2023/03/23 07:17:14;;;;;;;253.23;228.35;;;;;;;21.84;43.77;100210.50;20533673;28;20043;-78
2023/03/23 07:27:15;;;;;;;137.65;125.45;;;;;;;21.90;44.57;100220.53;20542996;28;20054;-78
2023/03/23 07:37:15;;;;;;;214.80;194.32;;;;;;;21.95;44.77;100221.94;20521007;28;20407;-77
2023/03/23 07:47:18;;;;;;;320.50;289.05;;;;;;;21.99;45.30;100240.00;20536182;28;20134;-77
2023/03/23 07:57:18;;;;;;;425.13;382.42;;;;;;;22.03;45.67;100237.94;20526122;28;20043;-78
2023/03/23 08:07:19;;;;;;;287.02;259.08;;;;;;;22.08;45.63;100246.31;20529629;28;20054;-76
2023/03/23 08:17:20;;;;;;;626.28;568.67;;;;;;;22.11;45.88;100247.88;20549426;28;20054;-75
2023/03/23 08:27:21;;;;;;;303.67;273.77;;;;;;;22.14;45.63;100247.59;20534844;28;20047;-77
2023/03/23 08:37:44;;;;;;;339.00;305.60;;;;;;;22.14;45.82;100248.47;20522826;28;20054;-78
2023/03/23 08:47:46;;;;;;;357.48;322.17;;;;;;;22.19;45.89;100253.31;20526384;28;20061;-76
2023/03/23 08:57:46;;;;;;;418.43;376.50;;;;;;;22.21;45.74;100246.94;20530196;28;20097;-77
2023/03/23 09:07:50;;;;;;;392.10;352.77;;;;;;;22.24;45.58;100237.97;20541242;28;20054;-78
2023/03/23 09:17:53;;;;;;;576.42;522.47;;;;;;;22.29;46.24;100230.50;20532072;28;20106;-77
2023/03/23 09:27:58;;;;;;;108.47;99.20;;;;;;;22.31;45.82;100220.63;20531696;28;20058;-77
2023/03/23 09:38:01;;;;;;;160.68;145.77;;;;;;;22.37;45.63;100214.84;20532596;28;20047;-76
2023/03/23 09:48:07;;;;;;;118.07;107.57;;;;;;;22.41;45.59;100207.56;20527166;28;20173;-75
2023/03/23 09:58:46;;;;;;;134.80;122.95;;;;;;;22.46;45.97;100200.06;20524532;28;20691;-76
2023/03/23 10:08:57;;;;;;;145.38;132.63;;;;;;;22.52;45.95;100198.69;20469559;28;20055;-74
2023/03/23 10:19:16;;;;;;;144.23;131.35;;;;;;;22.55;46.20;100182.59;20523490;28;20058;-75
2023/03/23 10:29:36;;;;;;;521.25;472.17;;;;;;;22.62;46.07;100161.78;20516065;28;20046;-74
2023/03/23 10:39:52;;;;;;;501.42;452.55;;;;;;;22.64;45.97;100146.66;20516154;28;20402;-76
2023/03/23 10:49:54;;;;;;;493.58;445.42;;;;;;;22.65;46.07;100156.25;20518016;28;20494;-76
2023/03/23 11:00:19;;;;;;;474.93;428.03;;;;;;;22.22;37.98;100152.84;20541463;28;20113;-76
2023/03/23 11:10:26;;;;;;;500.05;451.52;;;;;;;22.36;40.36;100151.66;20528319;28;20039;-75
2023/03/23 11:20:29;;;;;;;467.23;421.20;;;;;;;22.48;42.44;100132.16;20532673;28;20043;-76
2023/03/23 11:30:31;;;;;;;496.85;448.10;;;;;;;22.59;43.42;100127.75;20525247;28;20138;-76
2023/03/23 11:40:35;;;;;;;513.00;463.33;;;;;;;22.63;44.09;100137.06;20534883;28;20054;-77
2023/03/23 11:50:48;;;;;;;482.80;435.52;;;;;;;22.63;44.57;100123.88;20563419;28;20039;-76
2023/03/23 12:01:27;;;;;;;452.15;407.15;;;;;;;22.67;44.87;100109.47;20554975;28;20118;-76
2023/03/23 12:11:49;;;;;;;449.50;404.58;;;;;;;22.75;45.23;100106.94;20543301;28;20039;-76
2023/03/23 12:22:08;;;;;;;431.52;388.13;;;;;;;22.84;45.74;100081.56;20547799;28;20039;-75
2023/03/23 12:32:38;;;;;;;424.88;382.23;;;;;;;22.92;45.71;100057.09;20547488;28;20043;-76
2023/03/23 12:42:58;;;;;;;381.67;343.17;;;;;;;23.00;45.86;100062.53;20541329;28;20053;-75
2023/03/23 12:53:15;;;;;;;398.92;358.85;;;;;;;23.01;44.54;100053.66;20535570;28;20054;-74
2023/03/23 13:03:33;;;;;;;375.95;338.30;;;;;;;23.03;43.45;100046.41;20525846;28;20054;-76
2023/03/23 13:13:56;;;;;;;366.35;329.40;;;;;;;23.07;42.14;100045.16;20546830;28;20051;-76
2023/03/23 13:24:03;;;;;;;358.17;322.08;;;;;;;23.06;42.12;100032.94;20549919;28;20102;-74
2023/03/23 13:34:06;;;;;;;379.20;341.25;;;;;;;23.10;41.29;100039.59;20564481;28;20038;-76
2023/03/23 13:44:24;;;;;;;368.30;330.88;;;;;;;23.15;40.27;100024.16;20549299;28;20077;-77
2023/03/23 13:54:42;;;;;;;380.35;341.95;;;;;;;23.20;40.56;100013.19;20555142;28;20039;-75
2023/03/23 14:04:46;;;;;;;373.30;335.73;;;;;;;23.22;40.22;100003.31;20541717;28;20054;-76
2023/03/23 14:14:51;;;;;;;386.23;347.50;;;;;;;23.20;39.37;100000.00;20537969;28;20039;-78
2023/03/23 14:24:59;;;;;;;375.80;337.63;;;;;;;23.15;38.53;99989.81;20529967;28;20078;-78
2023/03/23 14:35:07;;;;;;;380.52;341.90;;;;;;;23.18;38.56;99991.38;20539499;28;20053;-79
2023/03/23 14:45:12;;;;;;;387.17;347.52;;;;;;;23.21;38.39;99991.09;20530932;28;20134;-78
2023/03/23 14:55:22;;;;;;;391.20;351.60;;;;;;;23.22;38.73;99990.13;20531107;28;20043;-79
2023/03/23 15:05:34;;;;;;;398.58;357.95;;;;;;;23.18;38.31;99983.47;20538138;28;20054;-80
2023/03/23 15:15:36;;;;;;;375.93;337.87;;;;;;;23.21;37.08;99982.34;20523571;28;20051;-77
2023/03/23 15:25:40;;;;;;;400.00;359.43;;;;;;;23.22;37.33;99992.75;20534103;28;20073;-77
2023/03/23 15:35:49;;;;;;;365.35;328.63;;;;;;;23.19;37.11;99990.38;20528298;28;20586;-76
2023/03/23 15:46:03;;;;;;;376.27;338.13;;;;;;;23.27;35.83;99974.66;20525619;28;20062;-77
2023/03/23 15:56:06;;;;;;;386.70;347.33;;;;;;;23.41;34.91;99972.56;20529362;28;20046;-77
2023/03/23 16:06:11;;;;;;;404.42;363.27;;;;;;;23.30;36.48;99978.84;20528180;28;20139;-76
2023/03/23 16:16:27;;;;;;;361.75;325.23;;;;;;;23.20;32.38;99984.13;20527700;28;20101;-77
2023/03/23 16:26:27;;;;;;;321.38;288.80;;;;;;;23.15;33.08;99989.81;20530378;28;20098;-76
2023/03/23 16:36:27;;;;;;;325.42;292.75;;;;;;;23.14;32.78;99984.69;20511395;28;20046;-75
2023/03/23 16:46:29;;;;;;;454.35;408.70;;;;;;;22.90;34.78;99995.69;20514645;28;20051;-78
2023/03/23 16:56:29;;;;;;;688.07;625.13;;;;;;;22.91;35.18;100005.28;20503873;28;20061;-79
2023/03/23 17:06:31;;;;;;;752.00;685.20;;;;;;;22.77;33.80;100014.44;20521201;28;20062;-77
2023/03/23 17:16:31;;;;;;;356.13;320.30;;;;;;;22.78;35.64;100014.31;20495461;28;20047;-83
2023/03/23 17:26:33;;;;;;;148.35;135.30;;;;;;;22.82;36.63;100014.88;20514431;28;20510;-81
2023/03/23 17:36:34;;;;;;;218.63;197.77;;;;;;;22.88;39.86;100026.69;20513499;28;20042;-81
2023/03/23 17:46:35;;;;;;;262.55;236.60;;;;;;;22.88;41.38;100034.59;20529420;28;20057;-80
2023/03/23 17:56:35;;;;;;;368.58;331.65;;;;;;;22.86;42.09;100040.84;20508244;28;20470;-78
2023/03/23 18:06:38;;;;;;;409.60;368.48;;;;;;;22.85;42.38;100043.59;20506202;28;20529;-77
2023/03/23 18:16:38;;;;;;;434.05;390.42;;;;;;;22.83;42.24;100056.94;20515978;28;20089;-78
2023/03/23 18:26:41;;;;;;;436.05;392.20;;;;;;;22.82;42.99;100067.66;20541945;28;20039;-77
2023/03/23 18:36:42;;;;;;;411.10;369.67;;;;;;;22.85;42.53;100070.84;20547085;28;20051;-79
2023/03/23 18:46:42;;;;;;;434.73;390.98;;;;;;;22.85;44.20;100080.56;20549793;28;20031;-78
2023/03/23 18:56:43;;;;;;;461.35;415.45;;;;;;;22.91;44.14;100077.41;20532551;28;20137;-78
2023/03/23 19:06:45;;;;;;;538.45;486.85;;;;;;;22.98;46.62;100070.56;20531200;28;20039;-79
2023/03/23 19:16:46;;;;;;;510.80;460.67;;;;;;;23.05;49.36;100081.44;20511078;28;20047;-81
2023/03/23 19:26:47;;;;;;;547.88;495.63;;;;;;;23.07;50.82;100073.34;20535267;28;20057;-79
2023/03/23 19:36:48;;;;;;;521.80;471.48;;;;;;;23.05;50.73;100078.78;20521873;28;20058;-75
2023/03/23 19:46:53;;;;;;;464.70;417.98;;;;;;;23.00;50.46;100081.84;20516707;28;20047;-76
2023/03/23 19:56:54;;;;;;;458.33;412.52;;;;;;;23.01;49.08;100099.34;20515868;28;20039;-77
2023/03/23 20:06:55;;;;;;;482.48;435.02;;;;;;;23.01;48.71;100099.34;20513906;28;20062;-76
2023/03/23 20:16:56;;;;;;;488.02;440.13;;;;;;;22.94;48.12;100102.69;20511110;28;20545;-74
2023/03/23 20:26:57;;;;;;;505.23;456.30;;;;;;;22.91;48.75;100105.59;20492615;28;20103;-76
2023/03/23 20:37:00;;;;;;;492.33;444.20;;;;;;;22.90;47.88;100101.28;20509492;28;20050;-76
2023/03/23 20:47:02;;;;;;;501.95;453.30;;;;;;;22.89;48.30;100103.09;20528489;28;20063;-76
2023/03/23 20:57:12;;;;;;;510.00;460.90;;;;;;;22.88;48.72;100105.88;20518410;28;20034;-77
2023/03/23 21:07:12;;;;;;;505.85;456.95;;;;;;;22.88;48.70;100105.88;20527183;28;20046;-76
2023/03/23 21:17:13;;;;;;;522.10;472.05;;;;;;;22.86;48.83;100092.78;20522012;28;20043;-75
2023/03/23 21:27:14;;;;;;;490.67;442.85;;;;;;;22.82;48.47;100084.31;20520141;28;22194;-75
2023/03/23 21:37:14;;;;;;;526.13;475.92;;;;;;;22.81;48.47;100093.22;20515170;28;20049;-75
2023/03/23 21:47:16;;;;;;;495.42;447.33;;;;;;;22.80;48.42;100101.28;20532841;28;20053;-75
2023/03/23 21:57:19;;;;;;;534.93;484.13;;;;;;;22.78;48.32;100108.50;20522301;28;20046;-76
2023/03/23 22:07:22;;;;;;;532.47;481.70;;;;;;;22.75;48.26;100090.28;20513932;28;20660;-75
2023/03/23 22:17:23;;;;;;;527.15;476.85;;;;;;;22.75;47.99;100090.28;20523665;28;20047;-75
2023/03/23 22:27:23;;;;;;;569.13;515.72;;;;;;;22.73;48.04;100098.34;20498716;28;20062;-75
2023/03/23 22:37:24;;;;;;;552.88;500.65;;;;;;;22.77;48.40;100104.19;20512227;28;20051;-74
2023/03/23 22:47:24;;;;;;;589.50;534.67;;;;;;;22.77;48.73;100107.66;20524781;28;20112;-75
2023/03/23 22:57:25;;;;;;;641.85;583.30;;;;;;;22.75;48.95;100106.94;20520777;28;20406;-75
2023/03/23 23:07:25;;;;;;;679.03;617.75;;;;;;;22.71;48.76;100113.47;20525187;28;20039;-75
2023/03/23 23:17:26;;;;;;;729.80;664.58;;;;;;;22.69;48.80;100115.41;20530362;28;20098;-75
2023/03/23 23:27:26;;;;;;;773.97;705.70;;;;;;;22.64;48.61;100107.94;20518804;28;20075;-75
2023/03/23 23:37:27;;;;;;;759.40;692.28;;;;;;;22.63;48.62;100103.59;20526801;28;20106;-75
2023/03/23 23:47:28;;;;;;;787.53;718.47;;;;;;;22.64;48.40;100107.06;20527153;28;20057;-75
2023/03/23 23:57:28;;;;;;;801.75;731.63;;;;;;;22.63;48.59;100108.03;20530279;28;20054;-75
